Погода Атлаутлана 2 недели

Мехико, Мексика

22 февраля-05 марта
  • 22февраля
    Сегодня
    +5°
    +24°
    Ясно и безоблачно
    ВремяПогодаТемператураВлажностьДавлениеВетер, м/сВероятность осадков
    00:00Ясно и безоблачно+12°C51 %584 мм2.7 м/с2 %
    03:00Ясно и безоблачно+7°C58 %581 мм2.0 м/с2 %
    06:00Ясно и безоблачно+8°C41 %581 мм1.6 м/с2 %
    09:00Ясно и безоблачно+15°C34 %585 мм1.6 м/с2 %
    12:00Ясно и безоблачно+21°C19 %587 мм2.1 м/с2 %
    15:00Ясно и безоблачно+23°C17 %586 мм2.3 м/с2 %
    18:00Ясно и безоблачно+20°C38 %585 мм0.8 м/с2 %
    21:00Ясно и безоблачно+15°C34 %583 мм1.5 м/с2 %
  • 23февраля
    Пятница
    +7°
    +23°
    Ясно и безоблачно
    ВремяПогодаТемператураВлажностьДавлениеВетер, м/сВероятность осадков
    00:00Ясно и безоблачно+11°C38 %581 мм1.7 м/с2 %
    03:00Ясно и безоблачно+7°C46 %579 мм2.2 м/с2 %
    06:00Ясно и безоблачно+7°C52 %579 мм2.2 м/с2 %
    09:00Ясно и безоблачно+15°C35 %584 мм0.8 м/с2 %
    12:00Ясно и безоблачно+21°C22 %586 мм2.5 м/с2 %
    15:00Ясно и безоблачно+22°C24 %585 мм2.8 м/с4 %
    18:00Ясно и безоблачно+20°C41 %584 мм1.1 м/с2 %
    21:00Ясно и безоблачно+15°C46 %583 мм1.4 м/с2 %
  • 24февраля
    Суббота
    +8°
    +23°
    Небольшая облачность
    ВремяПогодаТемператураВлажностьДавлениеВетер, м/сВероятность осадков
    00:00Ясно и безоблачно+14°C59 %584 мм3.1 м/с2 %
    03:00Ясно и безоблачно+9°C67 %581 мм2.2 м/с2 %
    06:00Ясно и безоблачно+8°C71 %581 мм1.6 м/с2 %
    09:00Ясно и безоблачно+15°C48 %586 мм1.1 м/с2 %
    12:00Ясно и безоблачно+20°C40 %588 мм2.2 м/с14 %
    15:00Небольшая облачность+22°C37 %587 мм1.5 м/с45 %
    18:00Практически безоблачно+20°C48 %586 мм1.2 м/с29 %
    21:00Ясно и безоблачно+15°C55 %585 мм1.3 м/с2 %
  • 25февраля
    Воскресенье
    +7°
    +23°
    Ясно и безоблачно
    ВремяПогодаТемператураВлажностьДавлениеВетер, м/сВероятность осадков
    00:00Ясно и безоблачно+14°C61 %585 мм3.1 м/с2 %
    03:00Практически безоблачно+9°C68 %582 мм1.6 м/с2 %
    06:00Ясно и безоблачно+9°C72 %582 мм1.9 м/с2 %
    09:00Ясно и безоблачно+16°C45 %587 мм0.7 м/с2 %
    12:00Практически безоблачно+21°C36 %589 мм2.4 м/с18 %
    15:00Ясно и безоблачно+23°C31 %587 мм2.4 м/с48 %
    18:00Ясно и безоблачно+20°C43 %586 мм0.6 м/с20 %
    21:00Ясно и безоблачно+15°C53 %585 мм1.3 м/с4 %
Мы используем cookies
Соглашаюсь